createdAt,value
2018-05-13T00:00:29.886Z,14.30
2018-05-13T00:02:57.461Z,14.20
2018-05-13T00:05:25.084Z,14.20
2018-05-13T00:07:52.743Z,14.20
2018-05-13T00:10:20.430Z,14.20
2018-05-13T00:12:48.168Z,14.20
2018-05-13T00:15:16.660Z,14.10
2018-05-13T00:17:44.269Z,14.10
2018-05-13T00:20:11.849Z,14.00
2018-05-13T00:22:39.542Z,14.10
2018-05-13T00:25:07.106Z,14.10
2018-05-13T00:27:34.706Z,14.30
2018-05-13T00:30:02.270Z,14.30
2018-05-13T00:32:29.834Z,14.20
2018-05-13T00:34:57.472Z,14.20
2018-05-13T00:37:25.873Z,14.20
2018-05-13T00:39:53.582Z,14.20
2018-05-13T00:42:21.365Z,14.20
2018-05-13T00:44:49.343Z,14.30
2018-05-13T00:47:17.260Z,14.30
2018-05-13T00:49:45.127Z,14.40
2018-05-13T00:52:13.593Z,14.20
2018-05-13T00:54:53.071Z,14.20
2018-05-13T00:57:21.371Z,14.20
2018-05-13T00:59:49.850Z,14.20
2018-05-13T01:02:17.519Z,14.20
2018-05-13T01:04:46.050Z,14.30
2018-05-13T01:07:13.629Z,14.20
2018-05-13T01:09:41.992Z,14.20
2018-05-13T01:12:09.557Z,14.20
2018-05-13T01:14:37.142Z,14.30
2018-05-13T01:17:04.705Z,14.20
2018-05-13T01:19:32.286Z,14.30
2018-05-13T01:21:59.850Z,14.20
2018-05-13T01:24:27.466Z,14.10
2018-05-13T01:26:55.088Z,13.90
2018-05-13T01:29:22.885Z,13.80
2018-05-13T01:31:50.560Z,13.70
2018-05-13T01:34:18.219Z,13.60
2018-05-13T01:36:46.107Z,13.50
2018-05-13T01:39:14.497Z,13.40
2018-05-13T01:41:42.078Z,13.40
2018-05-13T01:44:09.662Z,13.40
2018-05-13T01:46:37.229Z,13.50
2018-05-13T01:49:04.846Z,13.60
2018-05-13T01:51:34.503Z,13.70
2018-05-13T01:54:02.067Z,13.80
2018-05-13T01:56:29.663Z,13.90
2018-05-13T01:58:57.230Z,13.80
2018-05-13T02:01:24.839Z,13.90
2018-05-13T02:03:52.513Z,13.80
2018-05-13T02:06:20.102Z,13.80
2018-05-13T02:08:47.670Z,13.80
2018-05-13T02:11:15.269Z,13.90
2018-05-13T02:13:42.838Z,13.90
2018-05-13T02:16:10.425Z,13.90
2018-05-13T02:18:38.019Z,13.90
2018-05-13T02:21:05.661Z,13.90
2018-05-13T02:23:33.237Z,13.90
2018-05-13T02:26:00.843Z,14.00
2018-05-13T02:28:29.194Z,14.00
2018-05-13T02:30:56.787Z,14.00
2018-05-13T02:33:24.354Z,13.90
2018-05-13T02:35:51.934Z,13.90
2018-05-13T02:38:19.502Z,13.90
2018-05-13T02:40:47.095Z,13.80
2018-05-13T02:43:14.705Z,13.80
2018-05-13T02:45:42.389Z,13.80
2018-05-13T02:48:10.218Z,13.80
2018-05-13T02:50:37.920Z,13.90
2018-05-13T02:53:05.509Z,13.90
2018-05-13T02:55:33.096Z,13.90
2018-05-13T02:58:00.668Z,13.90
2018-05-13T03:00:28.254Z,13.80
2018-05-13T03:02:55.911Z,13.80
2018-05-13T03:05:23.458Z,13.80
2018-05-13T03:07:51.165Z,13.80
2018-05-13T03:10:18.692Z,13.80
2018-05-13T03:12:46.374Z,13.80
2018-05-13T03:15:14.088Z,13.80
2018-05-13T03:17:41.992Z,13.80
2018-05-13T03:20:10.703Z,13.80
2018-05-13T03:22:38.559Z,13.80
2018-05-13T03:25:06.266Z,13.80
2018-05-13T03:27:34.634Z,13.80
2018-05-13T03:30:02.197Z,13.80
2018-05-13T03:32:29.788Z,13.80
2018-05-13T03:34:58.006Z,13.90
2018-05-13T03:37:26.354Z,14.00
2018-05-13T03:39:53.938Z,14.00
2018-05-13T03:42:21.535Z,14.00
2018-05-13T03:44:49.924Z,14.00
2018-05-13T03:47:18.338Z,14.00
2018-05-13T03:49:45.980Z,14.00
2018-05-13T03:52:14.458Z,14.10
2018-05-13T03:54:42.214Z,14.10
2018-05-13T03:57:10.894Z,14.20
2018-05-13T03:59:39.453Z,14.20
2018-05-13T04:02:07.123Z,14.20
2018-05-13T04:04:35.450Z,14.10
2018-05-13T04:07:03.026Z,14.10
2018-05-13T04:09:43.413Z,14.10
2018-05-13T04:12:23.558Z,14.20
2018-05-13T04:17:56.320Z,14.20
2018-05-13T04:20:23.887Z,14.20
2018-05-13T04:22:51.481Z,14.20
2018-05-13T04:25:19.093Z,14.20
2018-05-13T04:27:46.741Z,14.20
2018-05-13T04:30:15.199Z,14.50
2018-05-13T04:32:42.848Z,14.50
2018-05-13T04:35:10.768Z,14.60
2018-05-13T04:37:40.477Z,14.60
2018-05-13T04:40:08.130Z,14.60
2018-05-13T04:42:35.720Z,14.50
2018-05-13T04:45:03.302Z,14.40
2018-05-13T04:47:31.658Z,14.30
2018-05-13T04:49:59.218Z,14.20
2018-05-13T04:52:26.810Z,14.20
2018-05-13T04:54:54.390Z,14.30
2018-05-13T04:57:22.045Z,14.30
2018-05-13T04:59:49.925Z,14.40
2018-05-13T05:02:17.933Z,14.50
2018-05-13T05:04:45.666Z,14.70
2018-05-13T05:07:14.278Z,15.10
2018-05-13T05:09:42.549Z,15.10
2018-05-13T05:12:10.929Z,15.20
2018-05-13T05:14:38.653Z,15.40
2018-05-13T05:17:06.253Z,15.60
2018-05-13T05:19:33.834Z,15.80
2018-05-13T05:22:01.403Z,15.80
2018-05-13T05:24:28.986Z,15.80
2018-05-13T05:26:56.559Z,15.90
2018-05-13T05:29:24.154Z,16.00
2018-05-13T05:31:52.482Z,15.70
2018-05-13T05:34:20.149Z,15.70
2018-05-13T05:36:47.810Z,15.70
2018-05-13T05:39:15.684Z,15.60
2018-05-13T05:41:43.620Z,15.60
2018-05-13T05:44:11.450Z,15.60
2018-05-13T05:46:39.685Z,15.60
2018-05-13T05:49:07.482Z,15.50
2018-05-13T05:51:35.855Z,15.50
2018-05-13T05:54:03.534Z,15.50
2018-05-13T05:56:31.097Z,15.60
2018-05-13T05:58:58.685Z,15.70
2018-05-13T06:01:26.249Z,15.90
2018-05-13T06:03:53.862Z,16.10
2018-05-13T06:06:22.222Z,16.70
2018-05-13T06:08:50.579Z,16.90
2018-05-13T06:11:18.184Z,16.90
2018-05-13T06:13:45.766Z,17.00
2018-05-13T06:16:14.825Z,17.20
2018-05-13T06:18:42.401Z,17.10
2018-05-13T06:21:10.119Z,17.10
2018-05-13T06:23:38.563Z,17.10
2018-05-13T06:26:06.146Z,17.10
2018-05-13T06:28:33.710Z,17.00
2018-05-13T06:31:01.294Z,16.90
2018-05-13T06:33:29.562Z,16.70
2018-05-13T06:35:57.147Z,16.70
2018-05-13T06:38:24.706Z,16.40
2018-05-13T06:40:52.327Z,16.20
2018-05-13T06:43:19.923Z,16.10
2018-05-13T06:45:48.345Z,15.90
2018-05-13T06:48:16.091Z,15.90
2018-05-13T06:50:45.683Z,16.00
2018-05-13T06:53:13.689Z,16.00
2018-05-13T06:55:41.711Z,16.00
2018-05-13T06:58:09.450Z,15.90
2018-05-13T07:00:37.181Z,15.90
2018-05-13T07:03:04.745Z,15.80
2018-05-13T07:05:32.335Z,15.80
2018-05-13T07:07:59.906Z,15.80
2018-05-13T07:10:27.567Z,15.80
2018-05-13T07:12:55.078Z,15.80
2018-05-13T07:15:22.725Z,15.90
2018-05-13T07:17:50.390Z,15.80
2018-05-13T07:20:18.128Z,15.80
2018-05-13T07:22:45.866Z,15.80
2018-05-13T07:25:14.017Z,15.70
2018-05-13T07:27:42.819Z,16.10
2018-05-13T07:30:10.626Z,16.10
2018-05-13T07:32:38.377Z,16.20
2018-05-13T07:35:06.016Z,16.20
2018-05-13T07:37:33.634Z,15.90
2018-05-13T07:40:01.198Z,15.80
2018-05-13T07:42:28.785Z,15.80
2018-05-13T07:44:56.349Z,16.10
2018-05-13T07:47:23.934Z,16.20
2018-05-13T07:49:51.498Z,16.20
2018-05-13T07:52:19.098Z,16.20
2018-05-13T07:54:47.548Z,16.30
2018-05-13T07:57:15.289Z,16.30
2018-05-13T07:59:43.865Z,16.20
2018-05-13T08:02:12.029Z,16.20
2018-05-13T08:04:39.893Z,16.10
2018-05-13T08:07:07.473Z,16.00
2018-05-13T08:09:35.042Z,16.00
2018-05-13T08:12:02.666Z,16.20
2018-05-13T08:14:30.989Z,16.40
2018-05-13T08:16:58.567Z,16.40
2018-05-13T08:19:26.134Z,16.50
2018-05-13T08:21:53.718Z,16.40
2018-05-13T08:24:21.281Z,16.40
2018-05-13T08:26:48.978Z,16.30
2018-05-13T08:29:16.607Z,16.30
2018-05-13T08:31:44.639Z,16.20
2018-05-13T08:34:13.416Z,16.10
2018-05-13T08:36:41.593Z,16.10
2018-05-13T08:39:10.603Z,16.10
2018-05-13T08:41:39.041Z,16.20
2018-05-13T08:44:07.520Z,16.30
2018-05-13T08:46:35.092Z,16.30
2018-05-13T08:49:02.674Z,16.20
2018-05-13T08:51:30.235Z,16.30
2018-05-13T08:53:57.890Z,16.30
2018-05-13T08:56:26.166Z,16.20
2018-05-13T08:58:53.742Z,16.20
2018-05-13T09:01:21.374Z,16.20
2018-05-13T09:03:50.014Z,16.40
2018-05-13T09:06:17.820Z,16.40
2018-05-13T09:08:47.574Z,16.40
2018-05-13T09:11:15.359Z,16.50
2018-05-13T09:13:43.258Z,16.40
2018-05-13T09:16:11.140Z,16.40
2018-05-13T09:18:39.088Z,16.50
2018-05-13T09:21:06.910Z,16.70
2018-05-13T09:23:34.489Z,16.80
2018-05-13T09:26:02.051Z,16.80
2018-05-13T09:28:29.625Z,16.70
2018-05-13T09:30:57.194Z,16.60
2018-05-13T09:33:24.770Z,16.70
2018-05-13T09:35:52.377Z,16.80
2018-05-13T09:38:20.024Z,16.80
2018-05-13T09:40:47.654Z,16.60
2018-05-13T09:43:15.497Z,16.70
2018-05-13T09:45:43.504Z,16.70
2018-05-13T09:48:12.895Z,16.60
2018-05-13T09:50:40.710Z,16.60
2018-05-13T09:53:09.377Z,16.70
2018-05-13T09:55:37.135Z,16.70
2018-05-13T09:58:04.702Z,16.80
2018-05-13T10:00:32.306Z,16.80
2018-05-13T10:02:59.881Z,16.80
2018-05-13T10:05:28.040Z,16.60
2018-05-13T10:07:55.618Z,16.60
2018-05-13T10:10:23.253Z,16.60
2018-05-13T10:12:51.624Z,16.80
2018-05-13T10:15:19.353Z,16.80
2018-05-13T10:17:46.940Z,16.70
2018-05-13T10:20:14.812Z,16.80
2018-05-13T10:22:42.749Z,16.90
2018-05-13T10:25:11.377Z,17.40
2018-05-13T10:27:39.951Z,16.90
2018-05-13T10:30:07.567Z,16.90
2018-05-13T10:32:35.960Z,17.50
2018-05-13T10:35:03.550Z,17.50
2018-05-13T10:37:31.106Z,17.80
2018-05-13T10:39:58.695Z,18.50
2018-05-13T10:42:26.333Z,18.40
2018-05-13T10:44:53.925Z,18.20
2018-05-13T10:47:21.558Z,17.70
2018-05-13T10:49:49.213Z,17.60
2018-05-13T10:52:16.837Z,17.30
2018-05-13T10:54:44.687Z,17.40
2018-05-13T10:57:12.793Z,17.30
2018-05-13T10:59:40.728Z,17.40
2018-05-13T11:02:08.648Z,17.30
2018-05-13T11:04:37.100Z,17.90
2018-05-13T11:07:04.693Z,17.80
2018-05-13T11:09:32.258Z,17.40
2018-05-13T11:12:00.015Z,17.40
2018-05-13T11:14:28.345Z,17.40
2018-05-13T11:16:55.936Z,17.40
2018-05-13T11:19:23.499Z,17.40
2018-05-13T11:21:51.159Z,17.50
2018-05-13T11:24:18.807Z,17.20
2018-05-13T11:26:46.550Z,17.30
2018-05-13T11:29:14.807Z,17.80
2018-05-13T11:31:42.713Z,17.60
2018-05-13T11:34:11.007Z,17.70
2018-05-13T11:36:39.765Z,18.00
2018-05-13T11:39:07.396Z,18.00
2018-05-13T11:41:34.949Z,18.40
2018-05-13T11:44:03.317Z,18.10
2018-05-13T11:46:30.881Z,18.10
2018-05-13T11:48:58.468Z,17.80
2018-05-13T11:51:26.897Z,17.70
2018-05-13T11:53:54.558Z,17.90
2018-05-13T11:56:22.189Z,18.00
2018-05-13T11:58:49.827Z,18.20
2018-05-13T12:01:18.199Z,18.00
2018-05-13T12:03:46.633Z,17.70
2018-05-13T12:06:14.813Z,17.70
2018-05-13T12:08:42.545Z,17.60
2018-05-13T12:11:10.827Z,17.70
2018-05-13T12:13:39.426Z,17.80
2018-05-13T12:16:08.095Z,19.00
2018-05-13T12:18:35.731Z,19.00
2018-05-13T12:21:04.113Z,19.50
2018-05-13T12:23:32.358Z,19.40
2018-05-13T12:25:59.938Z,19.00
2018-05-13T12:28:27.496Z,18.80
2018-05-13T12:30:55.078Z,18.80
2018-05-13T12:33:22.678Z,18.40
2018-05-13T12:35:50.304Z,18.20
2018-05-13T12:38:18.043Z,18.10
2018-05-13T12:40:47.650Z,18.90
2018-05-13T12:43:15.401Z,18.90
2018-05-13T12:45:43.260Z,18.80
2018-05-13T12:48:11.252Z,18.60
2018-05-13T12:50:39.949Z,18.40
2018-05-13T12:53:08.460Z,18.00
2018-05-13T12:55:36.144Z,18.00
2018-05-13T12:58:03.762Z,18.20
2018-05-13T13:00:32.219Z,19.00
2018-05-13T13:03:00.530Z,19.00
2018-05-13T13:05:29.207Z,19.40
2018-05-13T13:07:57.044Z,19.40
2018-05-13T13:10:24.687Z,19.40
2018-05-13T13:12:52.499Z,19.80
2018-05-13T13:15:20.078Z,19.90
2018-05-13T13:17:48.543Z,19.70
2018-05-13T13:20:16.874Z,19.30
2018-05-13T13:22:44.445Z,19.30
2018-05-13T13:25:11.999Z,19.50
2018-05-13T13:27:39.576Z,20.00
2018-05-13T13:30:07.168Z,20.50
2018-05-13T13:32:34.905Z,21.30
2018-05-13T13:35:02.570Z,21.30
2018-05-13T13:37:30.318Z,20.40
2018-05-13T13:39:59.102Z,21.30
2018-05-13T13:42:27.387Z,21.30
2018-05-13T13:44:56.607Z,20.60
2018-05-13T13:47:24.250Z,20.60
2018-05-13T13:49:51.826Z,20.50
2018-05-13T13:52:19.382Z,21.00
2018-05-13T13:54:47.479Z,21.00
2018-05-13T13:57:15.074Z,20.30
2018-05-13T13:59:42.637Z,20.60
2018-05-13T14:02:10.192Z,20.80
2018-05-13T14:04:37.805Z,20.40
2018-05-13T14:07:05.395Z,20.60
2018-05-13T14:09:34.577Z,21.00
2018-05-13T14:12:02.279Z,21.00
2018-05-13T14:14:31.026Z,21.00
2018-05-13T14:17:00.787Z,20.40
2018-05-13T14:19:29.654Z,20.70
2018-05-13T14:21:57.508Z,20.70
2018-05-13T14:24:25.126Z,20.20
2018-05-13T14:26:53.323Z,19.60
2018-05-13T14:29:20.862Z,19.60
2018-05-13T14:31:48.454Z,19.20
2018-05-13T14:34:16.005Z,18.60
2018-05-13T14:36:43.574Z,18.90
2018-05-13T14:39:12.258Z,19.30
2018-05-13T14:41:38.800Z,20.30
2018-05-13T14:44:07.313Z,21.70
2018-05-13T14:46:34.991Z,23.10
2018-05-13T14:49:03.633Z,23.10
2018-05-13T14:51:31.422Z,23.20
2018-05-13T14:53:59.315Z,23.50
2018-05-13T14:56:27.982Z,23.60
2018-05-13T14:58:56.573Z,23.90
2018-05-13T15:01:24.178Z,23.80
2018-05-13T15:03:52.638Z,23.60
2018-05-13T15:06:20.219Z,23.50
2018-05-13T15:08:47.773Z,22.30
2018-05-13T15:11:15.349Z,21.60
2018-05-13T15:13:42.901Z,21.90
2018-05-13T15:16:10.473Z,21.90
2018-05-13T15:18:38.181Z,22.10
2018-05-13T15:21:05.936Z,21.80
2018-05-13T15:23:34.301Z,22.70
2018-05-13T15:26:01.917Z,23.40
2018-05-13T15:28:29.645Z,22.70
2018-05-13T15:30:58.095Z,21.80
2018-05-13T15:33:26.609Z,21.30
2018-05-13T15:35:54.198Z,21.30
2018-05-13T15:38:22.533Z,21.60
2018-05-13T15:40:50.114Z,21.60
2018-05-13T15:43:17.831Z,21.70
2018-05-13T15:45:46.046Z,21.60
2018-05-13T15:48:13.622Z,21.50
2018-05-13T15:50:41.697Z,21.40
2018-05-13T15:53:09.311Z,21.70
2018-05-13T15:55:36.905Z,21.60
2018-05-13T15:58:05.351Z,21.50
2018-05-13T16:00:32.954Z,21.50
2018-05-13T16:03:00.648Z,21.70
2018-05-13T16:05:28.626Z,21.90
2018-05-13T16:07:56.434Z,21.80
2018-05-13T16:10:24.034Z,21.90
2018-05-13T16:12:51.672Z,21.90
2018-05-13T16:15:19.250Z,21.60
2018-05-13T16:17:49.868Z,21.50
2018-05-13T16:20:17.441Z,21.60
2018-05-13T16:22:45.059Z,21.60
2018-05-13T16:25:12.638Z,21.80
2018-05-13T16:27:40.199Z,21.90
2018-05-13T16:30:08.208Z,21.60
2018-05-13T16:32:35.803Z,21.70
2018-05-13T16:35:03.455Z,22.00
2018-05-13T16:37:31.346Z,22.50
2018-05-13T16:39:59.398Z,22.90
2018-05-13T16:42:27.350Z,22.10
2018-05-13T16:44:56.108Z,22.10
2018-05-13T16:47:23.721Z,22.10
2018-05-13T16:49:52.163Z,22.70
2018-05-13T16:52:20.490Z,22.60
2018-05-13T16:54:48.050Z,22.60
2018-05-13T16:57:16.820Z,22.40
2018-05-13T16:59:44.384Z,21.70
2018-05-13T17:02:11.961Z,21.00
2018-05-13T17:04:39.550Z,20.40
2018-05-13T17:07:07.255Z,19.40
2018-05-13T17:09:35.036Z,19.00
2018-05-13T17:12:02.825Z,18.70
2018-05-13T17:14:31.479Z,18.20
2018-05-13T17:16:59.800Z,18.10
2018-05-13T17:19:28.419Z,18.20
2018-05-13T17:21:56.504Z,18.10
2018-05-13T17:24:24.146Z,17.80
2018-05-13T17:26:51.729Z,17.80
2018-05-13T17:29:19.281Z,17.70
2018-05-13T17:31:48.353Z,17.50
2018-05-13T17:34:15.944Z,17.40
2018-05-13T17:36:43.549Z,17.50
2018-05-13T17:39:11.105Z,17.50
2018-05-13T17:41:38.758Z,17.60
2018-05-13T17:44:06.345Z,17.70
2018-05-13T17:46:34.040Z,17.70
2018-05-13T17:49:02.493Z,17.40
2018-05-13T17:51:30.318Z,17.40
2018-05-13T17:53:58.085Z,17.40
2018-05-13T17:56:25.855Z,17.40
2018-05-13T17:58:54.270Z,17.30
2018-05-13T18:01:21.846Z,17.30
2018-05-13T18:03:50.185Z,17.30
2018-05-13T18:06:17.750Z,17.30
2018-05-13T18:08:46.018Z,17.40
2018-05-13T18:11:13.574Z,17.50
2018-05-13T18:13:41.909Z,18.00
2018-05-13T18:16:09.538Z,18.00
2018-05-13T18:18:37.904Z,18.40
2018-05-13T18:21:05.686Z,18.40
2018-05-13T18:23:33.334Z,18.30
2018-05-13T18:26:01.025Z,18.10
2018-05-13T18:28:30.009Z,17.50
2018-05-13T18:30:58.218Z,17.50
2018-05-13T18:33:27.162Z,17.40
2018-05-13T18:35:54.762Z,17.40
2018-05-13T18:38:22.345Z,17.30
2018-05-13T18:40:49.921Z,17.20
2018-05-13T18:43:17.515Z,17.10
2018-05-13T18:45:45.077Z,17.00
2018-05-13T18:48:12.667Z,16.90
2018-05-13T18:50:40.234Z,16.80
2018-05-13T18:53:07.871Z,16.70
2018-05-13T18:55:35.497Z,16.70
2018-05-13T18:58:03.900Z,16.60
2018-05-13T19:00:31.837Z,16.50
2018-05-13T19:02:59.694Z,16.50
2018-05-13T19:05:27.734Z,16.40
2018-05-13T19:07:55.309Z,16.40
2018-05-13T19:10:23.653Z,16.30
2018-05-13T19:12:51.217Z,16.30
2018-05-13T19:15:18.818Z,16.20
2018-05-13T19:17:46.382Z,16.20
2018-05-13T19:20:13.962Z,16.20
2018-05-13T19:22:41.519Z,16.20
2018-05-13T19:25:09.141Z,16.10
2018-05-13T19:27:37.775Z,16.00
2018-05-13T19:30:05.424Z,16.00
2018-05-13T19:32:33.143Z,15.90
2018-05-13T19:35:01.356Z,15.80
2018-05-13T19:37:29.211Z,15.80
2018-05-13T19:39:57.884Z,15.80
2018-05-13T19:42:26.225Z,15.70
2018-05-13T19:44:53.801Z,15.70
2018-05-13T19:47:22.130Z,15.70
2018-05-13T19:49:49.717Z,15.70
2018-05-13T19:52:17.379Z,15.70
2018-05-13T19:54:45.047Z,15.70
2018-05-13T19:57:12.666Z,15.70
2018-05-13T19:59:40.587Z,15.70
2018-05-13T20:02:08.374Z,15.70
2018-05-13T20:04:37.385Z,15.60
2018-05-13T20:07:05.401Z,15.60
2018-05-13T20:09:33.090Z,15.60
2018-05-13T20:12:00.698Z,15.70
2018-05-13T20:14:29.082Z,15.60
2018-05-13T20:16:57.409Z,15.60
2018-05-13T20:19:24.975Z,15.60
2018-05-13T20:21:52.553Z,15.60
2018-05-13T20:24:20.122Z,15.60
2018-05-13T20:26:47.730Z,15.60
2018-05-13T20:29:15.290Z,15.60
2018-05-13T20:31:43.659Z,15.60
2018-05-13T20:34:11.264Z,15.60
2018-05-13T20:36:38.861Z,15.50
2018-05-13T20:39:06.466Z,15.60
2018-05-13T20:41:34.118Z,15.50
2018-05-13T20:44:02.567Z,15.50
2018-05-13T20:46:30.168Z,15.40
2018-05-13T20:48:58.550Z,15.40
2018-05-13T20:51:26.137Z,15.40
2018-05-13T20:53:54.562Z,15.40
2018-05-13T20:56:22.142Z,15.40
2018-05-13T20:58:49.711Z,15.30
2018-05-13T21:01:17.290Z,15.40
2018-05-13T21:03:44.853Z,15.40
2018-05-13T21:06:13.355Z,15.50
2018-05-13T21:08:40.950Z,15.50
2018-05-13T21:11:09.174Z,15.40
2018-05-13T21:13:37.499Z,15.40
2018-05-13T21:16:06.121Z,15.40
2018-05-13T21:18:33.685Z,15.40
2018-05-13T21:21:01.266Z,15.40
2018-05-13T21:23:28.829Z,15.30
2018-05-13T21:25:56.418Z,15.30
2018-05-13T21:28:24.048Z,15.20
2018-05-13T21:30:51.704Z,15.20
2018-05-13T21:33:19.342Z,15.20
2018-05-13T21:35:47.058Z,15.20
2018-05-13T21:38:15.298Z,15.20
2018-05-13T21:40:43.297Z,15.10
2018-05-13T21:43:11.614Z,15.20
2018-05-13T21:45:39.258Z,15.10
2018-05-13T21:48:06.834Z,15.10
2018-05-13T21:50:34.386Z,15.10
2018-05-13T21:53:01.966Z,15.10
2018-05-13T21:55:29.522Z,15.10
2018-05-13T21:57:57.098Z,15.20
2018-05-13T22:00:24.717Z,15.20
2018-05-13T22:02:52.639Z,15.10
2018-05-13T22:05:20.215Z,15.20
2018-05-13T22:07:48.043Z,15.10
2018-05-13T22:10:16.749Z,15.10
2018-05-13T22:12:44.612Z,15.00
2018-05-13T22:15:13.394Z,15.10
2018-05-13T22:17:41.025Z,15.00
2018-05-13T22:20:08.583Z,15.00
2018-05-13T22:22:36.929Z,15.00
2018-05-13T22:25:05.249Z,15.00
2018-05-13T22:27:33.596Z,15.00
2018-05-13T22:30:01.154Z,14.90
2018-05-13T22:32:28.729Z,14.90
2018-05-13T22:34:56.294Z,14.90
2018-05-13T22:37:23.990Z,14.90
2018-05-13T22:39:51.614Z,14.90
2018-05-13T22:42:20.161Z,14.90
2018-05-13T22:44:48.032Z,14.90
2018-05-13T22:47:16.022Z,14.90
2018-05-13T22:49:44.680Z,14.90
2018-05-13T22:52:13.561Z,14.90
2018-05-13T22:54:45.051Z,14.90
2018-05-13T22:57:14.154Z,14.90
2018-05-13T22:59:43.809Z,14.80
2018-05-13T23:02:13.478Z,14.80
2018-05-13T23:04:41.938Z,14.80
2018-05-13T23:07:09.501Z,14.80
2018-05-13T23:09:37.081Z,14.90
2018-05-13T23:12:04.646Z,14.80
2018-05-13T23:14:32.231Z,14.80
2018-05-13T23:16:59.797Z,14.90
2018-05-13T23:19:27.374Z,14.80
2018-05-13T23:21:54.989Z,14.80
2018-05-13T23:24:22.753Z,14.70
2018-05-13T23:26:51.826Z,14.80
2018-05-13T23:29:19.660Z,14.80
2018-05-13T23:31:47.349Z,14.80
2018-05-13T23:34:16.875Z,14.70
2018-05-13T23:36:45.376Z,14.70
2018-05-13T23:39:13.013Z,14.70
2018-05-13T23:41:41.070Z,14.70
2018-05-13T23:44:08.650Z,14.60
2018-05-13T23:46:36.205Z,14.60
2018-05-13T23:49:03.853Z,14.60
2018-05-13T23:51:31.429Z,14.60
2018-05-13T23:53:59.025Z,14.60
2018-05-13T23:56:26.637Z,14.60
2018-05-13T23:58:55.119Z,14.60
